Time;durP1;ratioP1;P1;durP2;ratioP2;P2;SDS_P1;SDS_P2;PMS_P1;PMS_P2;Temp;Humidity;BMP_temperature;BMP_pressure;BME280_temperature;BME280_humidity;BME280_pressure;Samples;Min_cycle;Max_cycle;Signal;HPM_P1;HPM_P2
2024/01/22 00:00:22;;;;;;;84.53;42.93;;;;;;;;;;5086058;28;20020;-83
2024/01/22 00:02:47;;;;;;;118.37;53.20;;;;;;;;;;5069971;28;20690;-84
2024/01/22 00:05:13;;;;;;;176.80;76.63;;;;;;;;;;5061743;28;20050;-85
2024/01/22 00:07:38;;;;;;;167.40;69.97;;;;;;;;;;5050053;28;20020;-84
2024/01/22 00:10:04;;;;;;;124.60;53.17;;;;;;;;;;5081561;28;20604;-85
2024/01/22 00:12:30;;;;;;;165.27;72.73;;;;;;;;;;5064748;28;20035;-85
2024/01/22 00:14:55;;;;;;;144.83;63.97;;;;;;;;;;5082811;28;20013;-85
2024/01/22 00:17:22;;;;;;;145.47;67.07;;;;;;;;;;5078043;28;20648;-85
2024/01/22 00:19:47;;;;;;;198.80;70.77;;;;;;;;;;5062008;28;20049;-83
2024/01/22 00:22:13;;;;;;;85.83;38.20;;;;;;;;;;5052617;28;20048;-85
2024/01/22 00:24:39;;;;;;;61.80;30.77;;;;;;;;;;5044138;28;20609;-83
2024/01/22 00:27:04;;;;;;;68.90;32.67;;;;;;;;;;5045724;28;20029;-84
2024/01/22 00:29:30;;;;;;;50.70;26.73;;;;;;;;;;5045211;28;20017;-83
2024/01/22 00:31:55;;;;;;;54.63;27.13;;;;;;;;;;5044803;28;20032;-83
2024/01/22 00:34:20;;;;;;;89.80;42.27;;;;;;;;;;5066211;28;20099;-83
2024/01/22 00:36:46;;;;;;;123.17;53.07;;;;;;;;;;5050414;28;20017;-84
2024/01/22 00:39:11;;;;;;;249.47;91.20;;;;;;;;;;5044867;28;20090;-84
2024/01/22 00:41:36;;;;;;;402.17;138.07;;;;;;;;;;5042076;28;20028;-84
2024/01/22 00:44:02;;;;;;;270.33;103.50;;;;;;;;;;5063790;28;20032;-85
2024/01/22 00:46:28;;;;;;;348.10;130.10;;;;;;;;;;5063482;28;20324;-85
2024/01/22 00:48:53;;;;;;;172.13;80.43;;;;;;;;;;5058567;28;20478;-83
2024/01/22 00:51:18;;;;;;;157.77;73.07;;;;;;;;;;5063227;28;20127;-85
2024/01/22 00:53:43;;;;;;;223.63;89.43;;;;;;;;;;5058370;28;20107;-84
2024/01/22 00:56:09;;;;;;;257.70;100.20;;;;;;;;;;5063600;28;20516;-84
2024/01/22 00:58:34;;;;;;;188.20;79.37;;;;;;;;;;5049604;28;20029;-84
2024/01/22 01:00:59;;;;;;;172.13;69.47;;;;;;;;;;5046155;28;20457;-84
2024/01/22 01:03:25;;;;;;;237.63;97.80;;;;;;;;;;5053936;28;20081;-84
2024/01/22 01:05:50;;;;;;;125.90;55.33;;;;;;;;;;5066654;28;20031;-84
2024/01/22 01:08:15;;;;;;;81.83;36.33;;;;;;;;;;5063345;28;20107;-85
2024/01/22 01:10:41;;;;;;;83.17;33.60;;;;;;;;;;5064263;28;20044;-85
2024/01/22 01:13:06;;;;;;;68.97;32.23;;;;;;;;;;5060305;28;20196;-83
2024/01/22 01:15:31;;;;;;;54.13;29.47;;;;;;;;;;5060759;28;20025;-85
2024/01/22 01:17:57;;;;;;;147.50;59.43;;;;;;;;;;5033708;28;20162;-85
2024/01/22 01:20:22;;;;;;;121.50;52.87;;;;;;;;;;5065093;28;20179;-85
2024/01/22 01:22:47;;;;;;;90.77;50.40;;;;;;;;;;5068843;28;20100;-84
2024/01/22 01:25:12;;;;;;;72.53;41.13;;;;;;;;;;5085476;28;20782;-84
2024/01/22 01:27:38;;;;;;;237.37;65.70;;;;;;;;;;5066949;28;20111;-84
2024/01/22 01:30:05;;;;;;;122.80;54.37;;;;;;;;;;5064033;28;20036;-85
2024/01/22 01:32:30;;;;;;;189.27;60.30;;;;;;;;;;5049388;28;20035;-84
2024/01/22 01:34:55;;;;;;;64.37;31.07;;;;;;;;;;5066328;28;20565;-85
2024/01/22 01:37:21;;;;;;;70.97;37.23;;;;;;;;;;5066841;28;20024;-84
2024/01/22 01:39:46;;;;;;;96.87;42.47;;;;;;;;;;5075628;28;20512;-83
2024/01/22 01:42:11;;;;;;;91.93;40.77;;;;;;;;;;5084661;28;20111;-85
2024/01/22 01:44:36;;;;;;;149.40;65.47;;;;;;;;;;5046583;28;20036;-84
2024/01/22 01:47:02;;;;;;;136.13;57.43;;;;;;;;;;5060501;28;20017;-85
2024/01/22 01:49:27;;;;;;;188.63;89.53;;;;;;;;;;5064704;28;20020;-85
2024/01/22 01:51:52;;;;;;;125.10;62.60;;;;;;;;;;5060349;28;20062;-84
2024/01/22 01:54:18;;;;;;;183.97;89.03;;;;;;;;;;5078166;28;20546;-84
2024/01/22 01:56:43;;;;;;;184.90;88.20;;;;;;;;;;5062359;28;20032;-83
2024/01/22 01:59:09;;;;;;;68.80;35.60;;;;;;;;;;5058534;28;20024;-85
2024/01/22 02:01:34;;;;;;;98.43;44.13;;;;;;;;;;5059128;28;20059;-86
2024/01/22 02:03:59;;;;;;;151.20;67.47;;;;;;;;;;5072163;28;20035;-85
2024/01/22 02:06:24;;;;;;;428.03;118.00;;;;;;;;;;5065877;28;20122;-85
2024/01/22 02:08:51;;;;;;;282.20;73.27;;;;;;;;;;5079647;28;20120;-85
2024/01/22 02:11:18;;;;;;;300.73;78.20;;;;;;;;;;5083759;28;20386;-85
2024/01/22 02:13:44;;;;;;;164.47;45.70;;;;;;;;;;5081834;28;20592;-84
2024/01/22 02:16:09;;;;;;;557.37;126.10;;;;;;;;;;5083280;28;20048;-85
2024/01/22 02:18:34;;;;;;;546.57;140.23;;;;;;;;;;5077052;28;20066;-83
2024/01/22 02:20:59;;;;;;;482.37;123.97;;;;;;;;;;5066199;28;20057;-84
2024/01/22 02:23:25;;;;;;;175.80;55.03;;;;;;;;;;5066497;28;20497;-83
2024/01/22 02:25:51;;;;;;;226.17;89.27;;;;;;;;;;5086416;28;20048;-83
2024/01/22 02:28:17;;;;;;;151.30;64.63;;;;;;;;;;5077782;28;20019;-83
2024/01/22 02:30:42;;;;;;;130.67;52.50;;;;;;;;;;5068223;28;20413;-85
2024/01/22 02:33:07;;;;;;;195.57;82.30;;;;;;;;;;5062255;28;20020;-83
2024/01/22 02:35:32;;;;;;;103.07;46.50;;;;;;;;;;5067369;28;20397;-84
2024/01/22 02:37:59;;;;;;;178.53;63.90;;;;;;;;;;5081055;28;20024;-86
2024/01/22 02:40:26;;;;;;;171.77;65.13;;;;;;;;;;5070374;28;20019;-86
2024/01/22 02:42:51;;;;;;;220.03;81.20;;;;;;;;;;5067050;28;20032;-85
2024/01/22 02:45:17;;;;;;;135.53;56.37;;;;;;;;;;5050031;28;20021;-83
2024/01/22 02:47:42;;;;;;;60.10;32.20;;;;;;;;;;5049768;28;20016;-83
2024/01/22 02:50:07;;;;;;;85.17;43.70;;;;;;;;;;5070081;28;20017;-84
2024/01/22 02:52:33;;;;;;;84.03;41.50;;;;;;;;;;5048657;28;20027;-83
2024/01/22 02:54:58;;;;;;;140.07;59.23;;;;;;;;;;5060729;28;20509;-83
2024/01/22 02:57:23;;;;;;;63.10;33.87;;;;;;;;;;5085966;28;20654;-83
2024/01/22 02:59:49;;;;;;;96.57;47.60;;;;;;;;;;5050541;28;20034;-84
2024/01/22 03:02:14;;;;;;;114.17;50.20;;;;;;;;;;5064431;28;20021;-84
2024/01/22 03:04:39;;;;;;;81.97;39.30;;;;;;;;;;5070763;28;20570;-83
2024/01/22 03:07:04;;;;;;;82.07;42.60;;;;;;;;;;5065308;28;20020;-84
2024/01/22 03:09:30;;;;;;;83.30;41.73;;;;;;;;;;5048980;28;20669;-86
2024/01/22 03:11:55;;;;;;;66.27;33.23;;;;;;;;;;5064713;28;20059;-86
2024/01/22 03:14:22;;;;;;;62.80;34.63;;;;;;;;;;5063159;28;20536;-83
2024/01/22 03:16:47;;;;;;;51.47;28.50;;;;;;;;;;5044144;28;20020;-84
2024/01/22 03:19:12;;;;;;;60.50;31.47;;;;;;;;;;5059191;28;20231;-84
2024/01/22 03:21:38;;;;;;;84.50;41.43;;;;;;;;;;5046413;28;20045;-83
2024/01/22 03:24:03;;;;;;;87.47;43.53;;;;;;;;;;5065275;28;20013;-83
2024/01/22 03:26:29;;;;;;;76.03;35.40;;;;;;;;;;5082285;28;20615;-85
2024/01/22 03:28:54;;;;;;;84.97;38.80;;;;;;;;;;5056540;28;20025;-84
2024/01/22 03:31:26;;;;;;;137.97;65.37;;;;;;;;;;5080399;28;20649;-85
2024/01/22 03:33:52;;;;;;;85.80;40.50;;;;;;;;;;5080076;28;20040;-85
2024/01/22 03:36:18;;;;;;;130.90;59.57;;;;;;;;;;5065400;28;20016;-84
2024/01/22 03:38:43;;;;;;;65.77;33.30;;;;;;;;;;5053434;28;20016;-84
2024/01/22 03:41:09;;;;;;;53.90;29.67;;;;;;;;;;5062270;28;20490;-86
2024/01/22 03:43:35;;;;;;;151.53;62.40;;;;;;;;;;5063234;28;20051;-85
2024/01/22 03:46:00;;;;;;;141.47;62.30;;;;;;;;;;5068619;28;20589;-84
2024/01/22 03:48:26;;;;;;;123.40;57.83;;;;;;;;;;5076010;28;20024;-84
2024/01/22 03:50:52;;;;;;;55.60;30.90;;;;;;;;;;5077371;28;20024;-85
2024/01/22 03:53:18;;;;;;;32.00;15.50;;;;;;;;;;5064632;28;20198;-84
2024/01/22 03:55:43;;;;;;;25.60;13.80;;;;;;;;;;5078334;28;20027;-85
2024/01/22 03:58:08;;;;;;;90.20;35.83;;;;;;;;;;5082393;28;20055;-84
2024/01/22 04:00:34;;;;;;;62.57;26.87;;;;;;;;;;5067353;28;20154;-85
2024/01/22 04:02:59;;;;;;;42.90;22.90;;;;;;;;;;5066701;28;20486;-84
2024/01/22 04:05:25;;;;;;;40.70;19.63;;;;;;;;;;5067445;28;20016;-85
2024/01/22 04:07:50;;;;;;;181.40;60.33;;;;;;;;;;5091084;28;20515;-85
2024/01/22 04:10:15;;;;;;;447.50;147.07;;;;;;;;;;5075712;28;20024;-84
2024/01/22 04:12:41;;;;;;;465.17;148.40;;;;;;;;;;5089812;28;20023;-84
2024/01/22 04:15:06;;;;;;;297.17;97.30;;;;;;;;;;5064878;28;20103;-84
2024/01/22 04:17:32;;;;;;;158.03;70.00;;;;;;;;;;5086792;28;20031;-85
2024/01/22 04:19:57;;;;;;;154.83;65.93;;;;;;;;;;5047052;28;20044;-84
2024/01/22 04:22:22;;;;;;;104.43;46.77;;;;;;;;;;5051295;28;20028;-85
2024/01/22 04:24:47;;;;;;;111.47;57.90;;;;;;;;;;5065562;28;20024;-84
2024/01/22 04:27:13;;;;;;;150.70;75.37;;;;;;;;;;5054716;28;20081;-85
2024/01/22 04:29:38;;;;;;;173.57;85.07;;;;;;;;;;5066938;28;20024;-84
2024/01/22 04:32:04;;;;;;;82.13;42.87;;;;;;;;;;5060941;28;20023;-84
2024/01/22 04:34:29;;;;;;;73.23;37.47;;;;;;;;;;5068658;28;20028;-85
2024/01/22 04:36:55;;;;;;;73.27;34.53;;;;;;;;;;5078412;28;20024;-85
2024/01/22 04:39:20;;;;;;;66.20;35.23;;;;;;;;;;5060931;28;20046;-82
2024/01/22 04:41:47;;;;;;;76.90;39.10;;;;;;;;;;5076329;28;20097;-83
2024/01/22 04:44:12;;;;;;;80.27;39.60;;;;;;;;;;5068698;28;20020;-82
2024/01/22 04:46:42;;;;;;;73.07;38.27;;;;;;;;;;5068902;28;20017;-84
2024/01/22 04:49:09;;;;;;;75.07;38.63;;;;;;;;;;5086001;28;20493;-83
2024/01/22 04:51:34;;;;;;;85.30;37.23;;;;;;;;;;5083591;28;20032;-83
2024/01/22 04:53:59;;;;;;;73.67;32.80;;;;;;;;;;5055026;28;20016;-82
2024/01/22 04:56:25;;;;;;;236.10;70.47;;;;;;;;;;5070056;28;20047;-83
2024/01/22 04:58:50;;;;;;;57.50;26.20;;;;;;;;;;5063051;28;20144;-84
2024/01/22 05:01:15;;;;;;;836.80;248.37;;;;;;;;;;5078064;28;20020;-86
2024/01/22 05:03:41;;;;;;;381.17;102.03;;;;;;;;;;5045374;28;20130;-85
2024/01/22 05:06:06;;;;;;;268.23;76.80;;;;;;;;;;5050029;28;20080;-85
2024/01/22 05:08:31;;;;;;;127.30;49.83;;;;;;;;;;5058031;28;20023;-85
2024/01/22 05:10:58;;;;;;;118.87;46.50;;;;;;;;;;5064493;28;20028;-85
2024/01/22 05:13:23;;;;;;;287.00;97.47;;;;;;;;;;5042568;28;20082;-85
2024/01/22 05:15:48;;;;;;;132.90;58.23;;;;;;;;;;5037087;28;20501;-85
2024/01/22 05:18:14;;;;;;;95.33;50.67;;;;;;;;;;5076372;28;20024;-84
2024/01/22 05:20:39;;;;;;;75.50;38.07;;;;;;;;;;5065495;28;20020;-85
2024/01/22 05:23:05;;;;;;;176.00;60.53;;;;;;;;;;5076624;28;20115;-85
2024/01/22 05:25:32;;;;;;;79.90;43.90;;;;;;;;;;5081770;28;20016;-85
2024/01/22 05:27:57;;;;;;;75.87;32.90;;;;;;;;;;5071326;28;20028;-85
2024/01/22 05:30:23;;;;;;;43.57;22.20;;;;;;;;;;5081610;28;20012;-85
2024/01/22 05:32:49;;;;;;;49.23;25.90;;;;;;;;;;5072355;28;20031;-85
2024/01/22 05:35:15;;;;;;;44.90;21.37;;;;;;;;;;5060989;28;20013;-86
2024/01/22 05:37:40;;;;;;;46.93;22.90;;;;;;;;;;5074107;28;20497;-84
2024/01/22 05:40:08;;;;;;;59.43;26.80;;;;;;;;;;5047285;28;20019;-84
2024/01/22 05:42:33;;;;;;;52.80;24.80;;;;;;;;;;5059858;28;20075;-85
2024/01/22 05:44:59;;;;;;;49.70;25.13;;;;;;;;;;5085643;28;20051;-83
2024/01/22 05:47:24;;;;;;;75.57;34.87;;;;;;;;;;5078443;28;20023;-84
2024/01/22 05:49:50;;;;;;;80.23;36.40;;;;;;;;;;5062651;28;20023;-84
2024/01/22 05:52:15;;;;;;;94.80;42.77;;;;;;;;;;5066240;28;20024;-83
2024/01/22 05:54:40;;;;;;;112.93;57.67;;;;;;;;;;5066957;28;20467;-85
2024/01/22 05:57:06;;;;;;;143.07;74.17;;;;;;;;;;5060058;28;20093;-84
2024/01/22 05:59:31;;;;;;;114.33;55.53;;;;;;;;;;5073979;28;20088;-84
2024/01/22 06:01:56;;;;;;;176.57;77.50;;;;;;;;;;5064752;28;20570;-84
2024/01/22 06:04:22;;;;;;;134.90;82.90;;;;;;;;;;5069770;28;20500;-84
2024/01/22 06:06:48;;;;;;;50.23;25.07;;;;;;;;;;5085203;28;20016;-84
2024/01/22 06:09:14;;;;;;;50.00;28.90;;;;;;;;;;5079629;28;20031;-84
2024/01/22 06:11:39;;;;;;;147.40;76.90;;;;;;;;;;5067528;28;20600;-85
2024/01/22 06:14:04;;;;;;;111.53;56.03;;;;;;;;;;5068714;28;20024;-85
2024/01/22 06:16:30;;;;;;;56.33;29.43;;;;;;;;;;5075731;28;20094;-84
2024/01/22 06:18:55;;;;;;;45.53;23.93;;;;;;;;;;5058332;28;20058;-84
2024/01/22 06:21:20;;;;;;;36.43;19.13;;;;;;;;;;5048446;28;20034;-85
2024/01/22 06:23:46;;;;;;;38.03;18.50;;;;;;;;;;5065384;28;20059;-84
2024/01/22 06:26:12;;;;;;;35.70;18.53;;;;;;;;;;5086942;28;20016;-84
2024/01/22 06:28:38;;;;;;;35.40;18.53;;;;;;;;;;5078194;28;20552;-84
2024/01/22 06:31:03;;;;;;;110.40;50.93;;;;;;;;;;5086389;28;20020;-85
2024/01/22 06:33:28;;;;;;;84.90;42.73;;;;;;;;;;5074386;28;20028;-84
2024/01/22 06:35:54;;;;;;;114.60;62.43;;;;;;;;;;5059065;28;20013;-84
2024/01/22 06:38:19;;;;;;;58.37;27.13;;;;;;;;;;5045852;28;20016;-84
2024/01/22 06:40:46;;;;;;;64.13;28.13;;;;;;;;;;5067847;28;20016;-84
2024/01/22 06:43:11;;;;;;;95.30;42.20;;;;;;;;;;5070285;28;20012;-84
2024/01/22 06:45:37;;;;;;;80.60;36.50;;;;;;;;;;5046065;28;20838;-85
2024/01/22 06:48:03;;;;;;;27.53;15.80;;;;;;;;;;5068818;28;20028;-84
2024/01/22 06:50:28;;;;;;;29.17;15.47;;;;;;;;;;5062733;28;20027;-84
2024/01/22 06:52:55;;;;;;;183.83;62.47;;;;;;;;;;5051710;28;20021;-90
2024/01/22 06:55:21;;;;;;;49.83;23.67;;;;;;;;;;5049970;28;20258;-86
2024/01/22 06:57:47;;;;;;;75.27;33.30;;;;;;;;;;5064669;28;20076;-86
2024/01/22 07:00:12;;;;;;;32.47;15.90;;;;;;;;;;5067142;28;20585;-84
2024/01/22 07:02:38;;;;;;;32.67;17.37;;;;;;;;;;5066726;28;20585;-85
2024/01/22 07:05:04;;;;;;;110.97;52.63;;;;;;;;;;5066980;28;20046;-85
2024/01/22 07:07:30;;;;;;;150.30;68.80;;;;;;;;;;5047861;28;20506;-84
2024/01/22 07:09:56;;;;;;;143.77;68.77;;;;;;;;;;5069652;28;20027;-84
2024/01/22 07:12:22;;;;;;;163.83;78.23;;;;;;;;;;5039534;28;20017;-89
2024/01/22 07:14:48;;;;;;;199.77;86.97;;;;;;;;;;5028964;28;20029;-85
2024/01/22 07:17:17;;;;;;;124.67;56.70;;;;;;;;;;5047076;28;20005;-91
2024/01/22 07:19:45;;;;;;;123.07;55.20;;;;;;;;;;5082307;28;20040;-84
2024/01/22 07:22:10;;;;;;;129.93;58.60;;;;;;;;;;5072977;28;20008;-84
2024/01/22 07:24:36;;;;;;;85.90;39.63;;;;;;;;;;5078560;28;20030;-87
2024/01/22 07:27:01;;;;;;;111.57;47.97;;;;;;;;;;5077019;28;20040;-85
2024/01/22 07:29:27;;;;;;;131.60;63.50;;;;;;;;;;5049564;28;20020;-84
2024/01/22 07:31:52;;;;;;;349.17;171.50;;;;;;;;;;5044236;28;20107;-84
2024/01/22 07:34:17;;;;;;;139.27;64.50;;;;;;;;;;5052654;28;20043;-84
2024/01/22 07:36:43;;;;;;;171.17;78.47;;;;;;;;;;5035605;28;20027;-84
2024/01/22 07:39:08;;;;;;;248.53;120.30;;;;;;;;;;5056275;28;20012;-87
2024/01/22 07:41:34;;;;;;;153.37;72.17;;;;;;;;;;5046611;28;20013;-86
2024/01/22 07:43:59;;;;;;;89.80;45.70;;;;;;;;;;5061931;28;20115;-85
2024/01/22 07:46:26;;;;;;;83.87;43.20;;;;;;;;;;5065061;28;20025;-87
2024/01/22 07:48:52;;;;;;;77.17;44.57;;;;;;;;;;5040988;28;20531;-89
2024/01/22 07:51:18;;;;;;;84.97;45.97;;;;;;;;;;5049913;28;20048;-86
2024/01/22 07:53:43;;;;;;;88.10;48.80;;;;;;;;;;5062425;28;20036;-87
2024/01/22 07:56:08;;;;;;;92.30;48.53;;;;;;;;;;5048532;28;20021;-88
2024/01/22 07:58:34;;;;;;;83.80;44.67;;;;;;;;;;5054248;28;20115;-86
2024/01/22 08:00:59;;;;;;;83.70;44.47;;;;;;;;;;5050511;28;20060;-86
2024/01/22 08:03:24;;;;;;;89.77;49.43;;;;;;;;;;5062662;28;20024;-86
2024/01/22 08:05:50;;;;;;;54.17;30.07;;;;;;;;;;5056052;28;20036;-87
2024/01/22 08:08:15;;;;;;;58.37;33.17;;;;;;;;;;5045408;28;20024;-84
2024/01/22 08:10:40;;;;;;;45.55;29.10;;;;;;;;;;5052911;28;20024;-82
2024/01/22 08:13:06;;;;;;;61.50;36.65;;;;;;;;;;5067099;28;20020;-83
2024/01/22 08:15:32;;;;;;;89.95;49.90;;;;;;;;;;5071838;28;20032;-84
2024/01/22 08:17:57;;;;;;;91.05;52.53;;;;;;;;;;5048568;28;20017;-84
2024/01/22 08:20:23;;;;;;;73.18;45.30;;;;;;;;;;5028657;28;20028;-83
2024/01/22 08:22:49;;;;;;;74.43;43.60;;;;;;;;;;5022285;28;20926;-84
2024/01/22 08:25:18;;;;;;;63.60;40.50;;;;;;;;;;5050276;28;20646;-85
2024/01/22 08:27:44;;;;;;;62.00;39.55;;;;;;;;;;5039621;28;20025;-85
2024/01/22 08:30:10;;;;;;;47.78;31.73;;;;;;;;;;5048228;28;20031;-84
2024/01/22 08:32:35;;;;;;;44.10;27.83;;;;;;;;;;5040898;28;20039;-84
2024/01/22 08:35:01;;;;;;;32.20;22.92;;;;;;;;;;5040956;28;20017;-85
2024/01/22 08:37:27;;;;;;;33.47;22.20;;;;;;;;;;5025466;28;20053;-84
2024/01/22 08:39:53;;;;;;;29.77;20.30;;;;;;;;;;5052139;28;20706;-86
2024/01/22 08:42:18;;;;;;;26.33;18.52;;;;;;;;;;5022318;28;20546;-83
2024/01/22 08:44:43;;;;;;;28.98;20.88;;;;;;;;;;5036099;28;20031;-89
2024/01/22 08:47:09;;;;;;;30.17;21.23;;;;;;;;;;5024787;28;20554;-87
2024/01/22 08:49:34;;;;;;;24.65;17.65;;;;;;;;;;5044862;28;20109;-89
2024/01/22 08:51:59;;;;;;;25.42;18.75;;;;;;;;;;5060202;28;20028;-87
2024/01/22 08:54:25;;;;;;;22.35;16.02;;;;;;;;;;5049685;28;20097;-88
2024/01/22 08:56:50;;;;;;;20.98;14.85;;;;;;;;;;5068342;28;20024;-86
2024/01/22 08:59:16;;;;;;;22.45;16.27;;;;;;;;;;5077429;28;20111;-86
2024/01/22 09:01:41;;;;;;;23.63;16.83;;;;;;;;;;5065086;28;20090;-85
2024/01/22 09:04:07;;;;;;;22.50;15.98;;;;;;;;;;5045308;28;20027;-83
2024/01/22 09:06:32;;;;;;;24.92;16.58;;;;;;;;;;5075659;28;20020;-84
2024/01/22 09:08:57;;;;;;;21.60;15.90;;;;;;;;;;5059302;28;20020;-85
2024/01/22 09:11:23;;;;;;;35.88;23.35;;;;;;;;;;5073517;28;20030;-83
2024/01/22 09:13:48;;;;;;;45.70;29.48;;;;;;;;;;5069805;28;20051;-83
2024/01/22 09:16:14;;;;;;;30.48;18.33;;;;;;;;;;5059139;28;20027;-82
2024/01/22 09:18:42;;;;;;;37.88;21.30;;;;;;;;;;5058987;28;20051;-85
2024/01/22 09:21:08;;;;;;;32.33;21.15;;;;;;;;;;5074138;28;20024;-83
2024/01/22 09:23:33;;;;;;;37.58;20.58;;;;;;;;;;5061020;28;20021;-82
2024/01/22 09:25:59;;;;;;;31.73;20.33;;;;;;;;;;5070444;28;20743;-86
2024/01/22 09:28:30;;;;;;;32.88;21.48;;;;;;;;;;5071063;28;20131;-82
2024/01/22 09:30:57;;;;;;;34.95;20.42;;;;;;;;;;5065849;28;20111;-84
2024/01/22 09:33:23;;;;;;;32.70;19.33;;;;;;;;;;5071403;28;20039;-84
2024/01/22 09:35:48;;;;;;;39.38;24.35;;;;;;;;;;5059362;28;20012;-84
2024/01/22 09:38:14;;;;;;;32.15;19.73;;;;;;;;;;5056425;28;20104;-85
2024/01/22 09:40:40;;;;;;;36.88;22.08;;;;;;;;;;5088601;28;20020;-83
2024/01/22 09:43:06;;;;;;;41.17;24.80;;;;;;;;;;5063586;28;20023;-83
2024/01/22 09:45:33;;;;;;;35.88;21.33;;;;;;;;;;5068468;28;20020;-83
2024/01/22 09:47:59;;;;;;;37.88;21.67;;;;;;;;;;5081888;28;20027;-83
2024/01/22 09:50:25;;;;;;;32.85;20.25;;;;;;;;;;5066176;28;20012;-84
2024/01/22 09:52:51;;;;;;;58.85;33.15;;;;;;;;;;5071949;28;20020;-84
2024/01/22 09:55:17;;;;;;;37.65;22.10;;;;;;;;;;5068144;28;20028;-84
2024/01/22 09:57:44;;;;;;;37.55;22.27;;;;;;;;;;5050351;28;20021;-84
2024/01/22 10:00:10;;;;;;;42.00;25.67;;;;;;;;;;5062971;28;20088;-83
2024/01/22 10:02:36;;;;;;;42.28;24.90;;;;;;;;;;5048331;28;20082;-83
2024/01/22 10:05:02;;;;;;;45.95;24.38;;;;;;;;;;5039642;28;20020;-84
2024/01/22 10:07:29;;;;;;;66.13;34.70;;;;;;;;;;5064982;28;20082;-84
2024/01/22 10:09:54;;;;;;;40.20;23.05;;;;;;;;;;5059499;28;20700;-83
2024/01/22 10:12:20;;;;;;;27.75;17.45;;;;;;;;;;5041703;28;20036;-83
2024/01/22 10:14:45;;;;;;;31.95;17.25;;;;;;;;;;5051588;28;20639;-83
2024/01/22 10:17:29;;;;;;;37.63;22.15;;;;;;;;;;5075232;28;20021;-83
2024/01/22 10:20:05;;;;;;;33.78;18.45;;;;;;;;;;5060323;28;20050;-85
2024/01/22 10:22:31;;;;;;;32.97;17.20;;;;;;;;;;5080764;28;20424;-84
2024/01/22 10:24:59;;;;;;;32.30;19.40;;;;;;;;;;5087355;28;20009;-84
2024/01/22 10:27:25;;;;;;;31.90;18.67;;;;;;;;;;5039519;28;20035;-85
2024/01/22 10:29:50;;;;;;;31.80;18.40;;;;;;;;;;5089216;28;20478;-85
2024/01/22 10:32:20;;;;;;;27.55;17.98;;;;;;;;;;5092785;28;20016;-85
2024/01/22 10:34:54;;;;;;;32.10;18.42;;;;;;;;;;5072020;28;20092;-84
2024/01/22 10:37:20;;;;;;;31.10;17.92;;;;;;;;;;5057841;28;20036;-85
2024/01/22 10:40:00;;;;;;;26.92;15.57;;;;;;;;;;5074066;28;20533;-85
2024/01/22 10:42:26;;;;;;;28.13;17.45;;;;;;;;;;5056141;28;20017;-84
2024/01/22 10:44:54;;;;;;;37.97;23.27;;;;;;;;;;5065692;28;20024;-84
2024/01/22 10:47:20;;;;;;;39.25;23.48;;;;;;;;;;5080711;28;20070;-84
2024/01/22 10:49:46;;;;;;;40.08;23.75;;;;;;;;;;5084572;28;20059;-84
2024/01/22 10:52:13;;;;;;;36.40;21.40;;;;;;;;;;5091100;28;20509;-85
2024/01/22 10:54:38;;;;;;;34.88;21.27;;;;;;;;;;5058456;28;20160;-85
2024/01/22 10:57:09;;;;;;;32.78;19.58;;;;;;;;;;5087971;28;20032;-83
2024/01/22 10:59:36;;;;;;;40.97;24.15;;;;;;;;;;5084112;28;20009;-86
2024/01/22 11:02:15;;;;;;;36.47;22.45;;;;;;;;;;5072055;28;20035;-86
2024/01/22 11:04:44;;;;;;;41.08;24.63;;;;;;;;;;5070958;28;20352;-90
2024/01/22 11:07:10;;;;;;;41.20;24.08;;;;;;;;;;5063483;28;20225;-87
2024/01/22 11:09:36;;;;;;;29.95;18.02;;;;;;;;;;5079316;28;20016;-86
2024/01/22 11:12:08;;;;;;;30.15;17.67;;;;;;;;;;5071967;28;20089;-87
2024/01/22 11:14:34;;;;;;;35.08;19.20;;;;;;;;;;5087178;28;20008;-86
2024/01/22 11:17:00;;;;;;;32.67;18.80;;;;;;;;;;5078039;28;20206;-86
2024/01/22 11:19:26;;;;;;;29.98;17.73;;;;;;;;;;5062575;28;20044;-91
2024/01/22 11:21:52;;;;;;;33.22;20.40;;;;;;;;;;5062924;28;20020;-87
2024/01/22 11:24:19;;;;;;;43.72;23.75;;;;;;;;;;5053998;28;20040;-85
2024/01/22 11:26:53;;;;;;;30.35;19.00;;;;;;;;;;5045064;28;20023;-88
2024/01/22 11:29:29;;;;;;;32.88;20.35;;;;;;;;;;5061624;28;20023;-90
2024/01/22 11:31:55;;;;;;;56.83;33.78;;;;;;;;;;5052245;28;20082;-88
2024/01/22 11:34:39;;;;;;;42.10;23.95;;;;;;;;;;5065459;28;20013;-85
2024/01/22 11:37:04;;;;;;;47.78;30.23;;;;;;;;;;5045085;28;20027;-87
2024/01/22 11:39:32;;;;;;;33.63;20.90;;;;;;;;;;5046446;28;20116;-87
2024/01/22 11:41:58;;;;;;;62.38;37.15;;;;;;;;;;5044090;28;20032;-86
2024/01/22 11:44:26;;;;;;;36.03;22.67;;;;;;;;;;5043236;28;20017;-89
2024/01/22 11:47:04;;;;;;;37.13;22.30;;;;;;;;;;5030937;28;20607;-84
2024/01/22 11:49:29;;;;;;;34.63;20.60;;;;;;;;;;5046889;28;20031;-85
2024/01/22 11:51:55;;;;;;;31.25;19.58;;;;;;;;;;5027848;28;20063;-88
2024/01/22 11:54:20;;;;;;;28.55;17.42;;;;;;;;;;5038634;28;20027;-84
2024/01/22 11:56:45;;;;;;;30.65;18.05;;;;;;;;;;5032211;28;20025;-84
2024/01/22 11:59:10;;;;;;;27.20;17.48;;;;;;;;;;5017760;28;20531;-84
2024/01/22 12:01:36;;;;;;;46.58;26.48;;;;;;;;;;5025539;28;20522;-85
2024/01/22 12:04:09;;;;;;;40.45;25.35;;;;;;;;;;5035670;28;20112;-88
2024/01/22 12:06:46;;;;;;;35.85;21.48;;;;;;;;;;5041270;28;20079;-83
2024/01/22 12:09:12;;;;;;;35.80;18.80;;;;;;;;;;5037501;28;20032;-86
2024/01/22 12:11:49;;;;;;;33.20;19.25;;;;;;;;;;5057876;28;20067;-85
2024/01/22 12:14:15;;;;;;;29.33;17.08;;;;;;;;;;5038727;28;20575;-85
2024/01/22 12:16:40;;;;;;;39.03;22.30;;;;;;;;;;5043208;28;20099;-85
2024/01/22 12:19:12;;;;;;;33.05;19.63;;;;;;;;;;5039045;28;20637;-85
2024/01/22 12:21:38;;;;;;;35.55;20.88;;;;;;;;;;5035740;28;20512;-85
2024/01/22 12:24:14;;;;;;;33.83;19.73;;;;;;;;;;5057968;28;20027;-86
2024/01/22 12:26:40;;;;;;;37.25;21.13;;;;;;;;;;5053682;28;20021;-86
2024/01/22 12:29:06;;;;;;;34.92;21.58;;;;;;;;;;5062589;28;20536;-86
2024/01/22 12:31:31;;;;;;;29.67;18.17;;;;;;;;;;5053667;28;20032;-86
2024/01/22 12:34:17;;;;;;;32.78;18.60;;;;;;;;;;5058423;28;20012;-85
2024/01/22 12:36:42;;;;;;;32.20;18.90;;;;;;;;;;5044496;28;20029;-86
2024/01/22 12:39:07;;;;;;;32.22;18.55;;;;;;;;;;5085153;28;20394;-86
2024/01/22 12:41:33;;;;;;;32.33;17.10;;;;;;;;;;5057000;28;20112;-85
2024/01/22 12:43:58;;;;;;;30.23;18.55;;;;;;;;;;5047817;28;20040;-86
2024/01/22 12:46:24;;;;;;;33.78;19.63;;;;;;;;;;5066279;28;20639;-89
2024/01/22 12:48:55;;;;;;;41.92;24.75;;;;;;;;;;5049026;28;20036;-91
2024/01/22 12:51:24;;;;;;;40.65;24.45;;;;;;;;;;5066654;28;20669;-85
2024/01/22 12:53:50;;;;;;;38.75;21.67;;;;;;;;;;5082190;28;20383;-86
2024/01/22 12:56:15;;;;;;;36.00;21.48;;;;;;;;;;5084928;28;20099;-85
2024/01/22 12:58:41;;;;;;;38.10;23.17;;;;;;;;;;5056744;28;20065;-85
2024/01/22 13:01:07;;;;;;;33.70;20.63;;;;;;;;;;5064863;28;20158;-85
2024/01/22 13:03:32;;;;;;;37.83;21.92;;;;;;;;;;5075189;28;20035;-85
2024/01/22 13:05:57;;;;;;;44.72;26.00;;;;;;;;;;5087023;28;20027;-86
2024/01/22 13:08:23;;;;;;;34.10;19.17;;;;;;;;;;5070686;28;20035;-86
2024/01/22 13:10:48;;;;;;;38.05;23.65;;;;;;;;;;5071943;28;20470;-86
2024/01/22 13:13:14;;;;;;;31.95;18.45;;;;;;;;;;5060188;28;20023;-87
2024/01/22 13:15:41;;;;;;;28.65;18.10;;;;;;;;;;5072717;28;20043;-88
2024/01/22 13:18:09;;;;;;;28.40;17.88;;;;;;;;;;5074919;28;20024;-92
2024/01/22 13:20:34;;;;;;;31.47;19.20;;;;;;;;;;5053032;28;20047;-86
2024/01/22 13:23:00;;;;;;;42.80;23.40;;;;;;;;;;5063532;28;20602;-87
2024/01/22 13:25:26;;;;;;;40.45;23.77;;;;;;;;;;5054244;28;20085;-88
2024/01/22 13:27:54;;;;;;;31.38;18.42;;;;;;;;;;5077988;28;20013;-88
2024/01/22 13:30:20;;;;;;;39.47;23.10;;;;;;;;;;5046516;28;20032;-88
2024/01/22 13:32:45;;;;;;;32.22;20.27;;;;;;;;;;5066161;28;20035;-87
2024/01/22 13:35:11;;;;;;;31.65;18.50;;;;;;;;;;5056398;28;20175;-88
2024/01/22 13:37:38;;;;;;;34.63;19.20;;;;;;;;;;5055886;28;20032;-88
2024/01/22 13:40:07;;;;;;;33.13;18.52;;;;;;;;;;5045608;28;20019;-88
2024/01/22 13:42:32;;;;;;;31.88;18.45;;;;;;;;;;5057688;28;20028;-89
2024/01/22 13:44:58;;;;;;;92.20;46.28;;;;;;;;;;5065591;28;20031;-89
2024/01/22 13:47:23;;;;;;;47.00;26.90;;;;;;;;;;5072267;28;20020;-91
2024/01/22 13:49:49;;;;;;;42.05;23.23;;;;;;;;;;5072023;28;20086;-87
2024/01/22 13:52:22;;;;;;;220.95;166.50;;;;;;;;;;5052275;28;20021;-89
2024/01/22 13:54:48;;;;;;;38.88;23.55;;;;;;;;;;5079090;28;20254;-91
2024/01/22 13:57:13;;;;;;;35.20;20.60;;;;;;;;;;5045927;28;20020;-91
2024/01/22 13:59:39;;;;;;;33.55;19.23;;;;;;;;;;5048954;28;20019;-90
2024/01/22 14:02:08;;;;;;;36.83;20.13;;;;;;;;;;5051964;28;20017;-93
2024/01/22 14:04:34;;;;;;;37.83;20.25;;;;;;;;;;5051114;28;20020;-90
2024/01/22 14:06:59;;;;;;;36.80;20.55;;;;;;;;;;5047362;28;20027;-91